OAW421 EGBB-LSZH
Flight info
| Callsign | OAW421 |
|---|---|
| Flight time | 1h 30m |
| Altitude | 39000 |
| Route | ADMEX1M ADMEX Y321 EMKUK UL612 VEULE DCT TEPRI DCT POGZI DCT GELTA DCT MANAG DCT PEVIT DCT BLM BLM3G |
| Aircraft | E190/M-SDE3GILORVW/S |
Departure
| Time | 2026-05-06 14:29 |
|---|---|
| Airport | Birmingham Airport (EGBB) |
Arrival
| Time | 2026-05-06 16:00 |
|---|---|
| Airport | Zürich Airport (LSZH) |
| Time | Latitude | Longitude | Altitude | Speed | Heading |
|---|---|---|---|---|---|
| 2026-05-06 14:08 | 52.45296 | -1.73801 | 322 ft | 0 kts | 146° |
| 2026-05-06 14:22 | 52.45311 | -1.73818 | 322 ft | 4 kts | 146° |
| 2026-05-06 14:22 | 52.45329 | -1.73838 | 319 ft | 4 kts | 155° |
| 2026-05-06 14:22 | 52.45353 | -1.73848 | 319 ft | 4 kts | 190° |
| 2026-05-06 14:22 | 52.45373 | -1.73833 | 320 ft | 2 kts | 236° |
| 2026-05-06 14:23 | 52.45363 | -1.73857 | 319 ft | 1 kts | 236° |
| 2026-05-06 14:23 | 52.45362 | -1.73858 | 319 ft | 0 kts | 236° |
| 2026-05-06 14:25 | 52.45362 | -1.73859 | 322 ft | 2 kts | 236° |
| 2026-05-06 14:25 | 52.45330 | -1.73937 | 321 ft | 14 kts | 236° |
| 2026-05-06 14:25 | 52.45318 | -1.74083 | 322 ft | 11 kts | 267° |
| 2026-05-06 14:26 | 52.45289 | -1.74131 | 322 ft | 2 kts | 185° |
| 2026-05-06 14:26 | 52.45239 | -1.74114 | 320 ft | 13 kts | 151° |
| 2026-05-06 14:26 | 52.45136 | -1.73998 | 321 ft | 20 kts | 146° |
| 2026-05-06 14:26 | 52.45014 | -1.73861 | 322 ft | 24 kts | 147° |
| 2026-05-06 14:27 | 52.44860 | -1.73695 | 322 ft | 28 kts | 152° |
| 2026-05-06 14:27 | 52.44679 | -1.73692 | 322 ft | 27 kts | 152° |
| 2026-05-06 14:27 | 52.44515 | -1.73505 | 321 ft | 30 kts | 144° |
| 2026-05-06 14:27 | 52.44377 | -1.73432 | 322 ft | 17 kts | 217° |
| 2026-05-06 14:28 | 52.44342 | -1.73534 | 324 ft | 5 kts | 229° |
| 2026-05-06 14:28 | 52.44326 | -1.73608 | 323 ft | 7 kts | 291° |
| 2026-05-06 14:28 | 52.44364 | -1.73666 | 323 ft | 16 kts | 322° |
| 2026-05-06 14:28 | 52.44650 | -1.73986 | 322 ft | 84 kts | 327° |
| 2026-05-06 14:29 | 52.45307 | -1.74718 | 325 ft | 142 kts | 326° |
| 2026-05-06 14:29 | 52.46209 | -1.75778 | 663 ft | 171 kts | 327° |
| 2026-05-06 14:29 | 52.47245 | -1.76964 | 1302 ft | 192 kts | 327° |
| 2026-05-06 14:29 | 52.48467 | -1.77996 | 1788 ft | 207 kts | 352° |
| 2026-05-06 14:30 | 52.49846 | -1.77600 | 2552 ft | 207 kts | 30° |
| 2026-05-06 14:30 | 52.50755 | -1.75802 | 3315 ft | 208 kts | 64° |
| 2026-05-06 14:30 | 52.51286 | -1.73569 | 3958 ft | 211 kts | 69° |
| 2026-05-06 14:30 | 52.51780 | -1.71231 | 4371 ft | 222 kts | 69° |
| 2026-05-06 14:31 | 52.52308 | -1.68814 | 4895 ft | 229 kts | 78° |
| 2026-05-06 14:31 | 52.52092 | -1.66217 | 5588 ft | 238 kts | 115° |
| 2026-05-06 14:31 | 52.51026 | -1.64103 | 6246 ft | 245 kts | 134° |
| 2026-05-06 14:31 | 52.49786 | -1.62089 | 6694 ft | 259 kts | 133° |
| 2026-05-06 14:32 | 52.48470 | -1.59928 | 7013 ft | 276 kts | 135° |
| 2026-05-06 14:32 | 52.47018 | -1.57794 | 7509 ft | 284 kts | 139° |
| 2026-05-06 14:32 | 52.45477 | -1.55732 | 8140 ft | 288 kts | 142° |
| 2026-05-06 14:32 | 52.43801 | -1.53880 | 8780 ft | 293 kts | 148° |
| 2026-05-06 14:33 | 52.42053 | -1.52118 | 9463 ft | 297 kts | 149° |
| 2026-05-06 14:33 | 52.40272 | -1.50359 | 10200 ft | 300 kts | 149° |
| 2026-05-06 14:33 | 52.38429 | -1.48715 | 10898 ft | 303 kts | 156° |
| 2026-05-06 14:33 | 52.36449 | -1.47447 | 11599 ft | 305 kts | 162° |
| 2026-05-06 14:34 | 52.34413 | -1.46391 | 12325 ft | 308 kts | 164° |
| 2026-05-06 14:34 | 52.32340 | -1.45405 | 13003 ft | 312 kts | 166° |
| 2026-05-06 14:34 | 52.30160 | -1.44580 | 13226 ft | 331 kts | 172° |
| 2026-05-06 14:34 | 52.27839 | -1.43904 | 13487 ft | 347 kts | 172° |
| 2026-05-06 14:35 | 52.25442 | -1.43218 | 14092 ft | 349 kts | 172° |
| 2026-05-06 14:35 | 52.23028 | -1.42529 | 14668 ft | 353 kts | 172° |
| 2026-05-06 14:35 | 52.20603 | -1.41858 | 15281 ft | 354 kts | 172° |
| 2026-05-06 14:35 | 52.18185 | -1.41169 | 15837 ft | 358 kts | 172° |
| 2026-05-06 14:36 | 52.15726 | -1.40473 | 16420 ft | 361 kts | 172° |
| 2026-05-06 14:36 | 52.13246 | -1.39763 | 17032 ft | 363 kts | 172° |
| 2026-05-06 14:36 | 52.10743 | -1.39060 | 17617 ft | 366 kts | 172° |
| 2026-05-06 14:36 | 52.08219 | -1.38353 | 18203 ft | 370 kts | 172° |
| 2026-05-06 14:37 | 52.05674 | -1.37641 | 18768 ft | 372 kts | 172° |
| 2026-05-06 14:37 | 52.03119 | -1.36922 | 19314 ft | 374 kts | 172° |
| 2026-05-06 14:37 | 52.00554 | -1.36097 | 19851 ft | 377 kts | 167° |
| 2026-05-06 14:37 | 51.98043 | -1.34824 | 20389 ft | 380 kts | 163° |
| 2026-05-06 14:38 | 51.95535 | -1.33377 | 20899 ft | 383 kts | 162° |
| 2026-05-06 14:38 | 51.93178 | -1.31694 | 21361 ft | 387 kts | 156° |
| 2026-05-06 14:38 | 51.90741 | -1.29785 | 21851 ft | 390 kts | 156° |
| 2026-05-06 14:38 | 51.88303 | -1.27832 | 22332 ft | 392 kts | 156° |
| 2026-05-06 14:39 | 51.85868 | -1.25877 | 22803 ft | 395 kts | 156° |
| 2026-05-06 14:39 | 51.83375 | -1.23872 | 23291 ft | 398 kts | 156° |
| 2026-05-06 14:39 | 51.80884 | -1.21875 | 23745 ft | 400 kts | 156° |
| 2026-05-06 14:39 | 51.78386 | -1.19875 | 24164 ft | 402 kts | 156° |
| 2026-05-06 14:40 | 51.75877 | -1.17865 | 24560 ft | 404 kts | 156° |
| 2026-05-06 14:40 | 51.73350 | -1.15847 | 24961 ft | 406 kts | 156° |
| 2026-05-06 14:40 | 51.70809 | -1.13820 | 25345 ft | 408 kts | 156° |
| 2026-05-06 14:40 | 51.68255 | -1.11784 | 25710 ft | 410 kts | 156° |
| 2026-05-06 14:41 | 51.65688 | -1.09741 | 26058 ft | 413 kts | 156° |
| 2026-05-06 14:41 | 51.63129 | -1.07616 | 26393 ft | 415 kts | 154° |
| 2026-05-06 14:41 | 51.60648 | -1.05313 | 26723 ft | 419 kts | 148° |
| 2026-05-06 14:41 | 51.58256 | -1.02631 | 27044 ft | 421 kts | 147° |
| 2026-05-06 14:42 | 51.56014 | -1.00112 | 27311 ft | 423 kts | 147° |
| 2026-05-06 14:42 | 51.53629 | -0.97388 | 27619 ft | 426 kts | 147° |
| 2026-05-06 14:42 | 51.51208 | -0.94629 | 27942 ft | 428 kts | 146° |
| 2026-05-06 14:42 | 51.48778 | -0.91861 | 28242 ft | 429 kts | 147° |
| 2026-05-06 14:43 | 51.46252 | -0.89313 | 28533 ft | 430 kts | 152° |
| 2026-05-06 14:43 | 51.43769 | -0.87114 | 28833 ft | 430 kts | 155° |
| 2026-05-06 14:43 | 51.41013 | -0.85196 | 29131 ft | 431 kts | 159° |
| 2026-05-06 14:43 | 51.38465 | -0.83507 | 29443 ft | 431 kts | 159° |
| 2026-05-06 14:44 | 51.35685 | -0.81728 | 29847 ft | 429 kts | 159° |
| 2026-05-06 14:44 | 51.32911 | -0.79948 | 30157 ft | 429 kts | 159° |
| 2026-05-06 14:44 | 51.30185 | -0.78226 | 30477 ft | 428 kts | 160° |
| 2026-05-06 14:45 | 51.24667 | -0.74705 | 31011 ft | 428 kts | 160° |
| 2026-05-06 14:45 | 51.22091 | -0.73055 | 31251 ft | 428 kts | 160° |
| 2026-05-06 14:45 | 51.19270 | -0.71273 | 31536 ft | 427 kts | 160° |
| 2026-05-06 14:45 | 51.16508 | -0.69523 | 31840 ft | 426 kts | 160° |
| 2026-05-06 14:46 | 51.13752 | -0.67777 | 32107 ft | 426 kts | 160° |
| 2026-05-06 14:46 | 51.10993 | -0.66033 | 32372 ft | 426 kts | 160° |
| 2026-05-06 14:46 | 51.08294 | -0.64281 | 32679 ft | 426 kts | 157° |
| 2026-05-06 14:46 | 51.05754 | -0.62331 | 32937 ft | 426 kts | 154° |
| 2026-05-06 14:47 | 51.03563 | -0.60433 | 33151 ft | 427 kts | 149° |
| 2026-05-06 14:47 | 51.01075 | -0.57842 | 33408 ft | 427 kts | 148° |
| 2026-05-06 14:47 | 50.98600 | -0.55241 | 33683 ft | 427 kts | 147° |
| 2026-05-06 14:47 | 50.96163 | -0.52645 | 33942 ft | 427 kts | 147° |
| 2026-05-06 14:48 | 50.93698 | -0.50017 | 34177 ft | 426 kts | 147° |
| 2026-05-06 14:48 | 50.91248 | -0.47412 | 34402 ft | 427 kts | 147° |
| 2026-05-06 14:48 | 50.88811 | -0.44821 | 34631 ft | 427 kts | 148° |
| 2026-05-06 14:48 | 50.86343 | -0.42206 | 34861 ft | 427 kts | 147° |
| 2026-05-06 14:49 | 50.83877 | -0.39589 | 35100 ft | 427 kts | 147° |
| 2026-05-06 14:49 | 50.81376 | -0.36945 | 35353 ft | 427 kts | 148° |
| 2026-05-06 14:49 | 50.78938 | -0.34367 | 35606 ft | 427 kts | 148° |
| 2026-05-06 14:49 | 50.76467 | -0.31759 | 35826 ft | 427 kts | 148° |
| 2026-05-06 14:50 | 50.73993 | -0.29153 | 36073 ft | 427 kts | 148° |
| 2026-05-06 14:50 | 50.71517 | -0.26545 | 36318 ft | 428 kts | 148° |
| 2026-05-06 14:50 | 50.69012 | -0.23913 | 36561 ft | 428 kts | 148° |
| 2026-05-06 14:50 | 50.66566 | -0.21345 | 36798 ft | 428 kts | 148° |
| 2026-05-06 14:51 | 50.64084 | -0.18742 | 37033 ft | 428 kts | 148° |
| 2026-05-06 14:51 | 50.61607 | -0.16149 | 37289 ft | 427 kts | 148° |
| 2026-05-06 14:51 | 50.59127 | -0.13555 | 37522 ft | 427 kts | 148° |
| 2026-05-06 14:51 | 50.56650 | -0.10966 | 37743 ft | 428 kts | 148° |
| 2026-05-06 14:52 | 50.54170 | -0.08381 | 37966 ft | 428 kts | 148° |
| 2026-05-06 14:52 | 50.51694 | -0.05801 | 38187 ft | 428 kts | 148° |
| 2026-05-06 14:52 | 50.49209 | -0.03215 | 38412 ft | 428 kts | 148° |
| 2026-05-06 14:52 | 50.46833 | -0.00748 | 38626 ft | 428 kts | 148° |
| 2026-05-06 14:53 | 50.44358 | 0.01809 | 38821 ft | 422 kts | 148° |
| 2026-05-06 14:53 | 50.39511 | 0.06845 | 38930 ft | 420 kts | 148° |
| 2026-05-06 14:54 | 50.34585 | 0.11936 | 38978 ft | 427 kts | 148° |
| 2026-05-06 14:54 | 50.29654 | 0.17019 | 38966 ft | 423 kts | 148° |
| 2026-05-06 14:55 | 50.24721 | 0.22089 | 38972 ft | 424 kts | 148° |
| 2026-05-06 14:55 | 50.19794 | 0.27145 | 38966 ft | 424 kts | 148° |
| 2026-05-06 14:56 | 50.14893 | 0.32188 | 38979 ft | 425 kts | 148° |
| 2026-05-06 14:56 | 50.09959 | 0.37250 | 38966 ft | 424 kts | 148° |
| 2026-05-06 14:57 | 50.05027 | 0.42301 | 38973 ft | 425 kts | 148° |
| 2026-05-06 14:57 | 50.00089 | 0.47344 | 38970 ft | 424 kts | 148° |
| 2026-05-06 14:58 | 49.95150 | 0.52374 | 38965 ft | 425 kts | 148° |
| 2026-05-06 14:58 | 49.90206 | 0.57397 | 38970 ft | 425 kts | 148° |
| 2026-05-06 14:59 | 49.85508 | 0.62981 | 38968 ft | 426 kts | 140° |
| 2026-05-06 14:59 | 49.81298 | 0.69464 | 38971 ft | 428 kts | 134° |
| 2026-05-06 15:00 | 49.77273 | 0.76241 | 38961 ft | 427 kts | 134° |
| 2026-05-06 15:00 | 49.73938 | 0.81887 | 38970 ft | 428 kts | 134° |
| 2026-05-06 15:01 | 49.69252 | 0.89789 | 38961 ft | 428 kts | 134° |
| 2026-05-06 15:01 | 49.65234 | 0.96545 | 38968 ft | 426 kts | 134° |
| 2026-05-06 15:02 | 49.61868 | 1.02196 | 38966 ft | 427 kts | 134° |
| 2026-05-06 15:02 | 49.57869 | 1.08887 | 38968 ft | 426 kts | 134° |
| 2026-05-06 15:03 | 49.53842 | 1.15616 | 38965 ft | 428 kts | 135° |
| 2026-05-06 15:03 | 49.49806 | 1.22334 | 38966 ft | 426 kts | 134° |
| 2026-05-06 15:04 | 49.45811 | 1.28965 | 38969 ft | 426 kts | 134° |
| 2026-05-06 15:04 | 49.41772 | 1.35666 | 38975 ft | 426 kts | 134° |
| 2026-05-06 15:05 | 49.37727 | 1.42331 | 38963 ft | 426 kts | 135° |
| 2026-05-06 15:05 | 49.33709 | 1.48968 | 38959 ft | 426 kts | 135° |
| 2026-05-06 15:06 | 49.29688 | 1.55575 | 38952 ft | 427 kts | 135° |
| 2026-05-06 15:06 | 49.25940 | 1.61720 | 38946 ft | 426 kts | 135° |
| 2026-05-06 15:07 | 49.21883 | 1.68361 | 38933 ft | 427 kts | 135° |
| 2026-05-06 15:07 | 49.17925 | 1.74811 | 38937 ft | 426 kts | 135° |
| 2026-05-06 15:08 | 49.13858 | 1.81428 | 38922 ft | 426 kts | 135° |
| 2026-05-06 15:08 | 49.10080 | 1.87561 | 38943 ft | 426 kts | 135° |
| 2026-05-06 15:09 | 49.06016 | 1.94140 | 38929 ft | 426 kts | 135° |
| 2026-05-06 15:09 | 49.02139 | 2.00404 | 38950 ft | 427 kts | 135° |
| 2026-05-06 15:10 | 48.98445 | 2.06356 | 38930 ft | 426 kts | 135° |
| 2026-05-06 15:10 | 48.94381 | 2.12889 | 38936 ft | 427 kts | 135° |
| 2026-05-06 15:11 | 48.90446 | 2.19195 | 38905 ft | 426 kts | 135° |
| 2026-05-06 15:11 | 48.86512 | 2.25492 | 38926 ft | 426 kts | 135° |
| 2026-05-06 15:12 | 48.82792 | 2.31428 | 38913 ft | 426 kts | 135° |
| 2026-05-06 15:12 | 48.79105 | 2.37297 | 38915 ft | 426 kts | 135° |
| 2026-05-06 15:13 | 48.75582 | 2.42893 | 38906 ft | 426 kts | 135° |
| 2026-05-06 15:13 | 48.71623 | 2.49167 | 38912 ft | 426 kts | 135° |
| 2026-05-06 15:14 | 48.68375 | 2.54304 | 38914 ft | 426 kts | 135° |
| 2026-05-06 15:14 | 48.64270 | 2.60781 | 38907 ft | 426 kts | 136° |
| 2026-05-06 15:15 | 48.60626 | 2.66506 | 38918 ft | 423 kts | 136° |
| 2026-05-06 15:15 | 48.58321 | 2.70141 | 38905 ft | 423 kts | 135° |
| 2026-05-06 15:16 | 48.55319 | 2.76469 | 38919 ft | 429 kts | 118° |
| 2026-05-06 15:16 | 48.53637 | 2.84881 | 38904 ft | 433 kts | 97° |
| 2026-05-06 15:17 | 48.53826 | 2.93928 | 38910 ft | 436 kts | 86° |
| 2026-05-06 15:17 | 48.54176 | 3.01812 | 38917 ft | 435 kts | 89° |
| 2026-05-06 15:18 | 48.54028 | 3.10896 | 38912 ft | 433 kts | 94° |
| 2026-05-06 15:18 | 48.53725 | 3.19605 | 38899 ft | 432 kts | 95° |
| 2026-05-06 15:19 | 48.53411 | 3.28230 | 38899 ft | 433 kts | 95° |
| 2026-05-06 15:19 | 48.53077 | 3.37290 | 38900 ft | 433 kts | 95° |
| 2026-05-06 15:20 | 48.52736 | 3.46362 | 38882 ft | 433 kts | 95° |
| 2026-05-06 15:20 | 48.52387 | 3.55450 | 38894 ft | 435 kts | 95° |
| 2026-05-06 15:21 | 48.52033 | 3.64496 | 38890 ft | 434 kts | 95° |
| 2026-05-06 15:21 | 48.51669 | 3.73586 | 38894 ft | 434 kts | 95° |
| 2026-05-06 15:22 | 48.51300 | 3.82636 | 38882 ft | 434 kts | 95° |
| 2026-05-06 15:22 | 48.50921 | 3.91788 | 38893 ft | 434 kts | 95° |
| 2026-05-06 15:23 | 48.50226 | 4.00803 | 38883 ft | 432 kts | 107° |
| 2026-05-06 15:23 | 48.48049 | 4.09167 | 38893 ft | 428 kts | 119° |
| 2026-05-06 15:24 | 48.45365 | 4.17073 | 38883 ft | 428 kts | 120° |
| 2026-05-06 15:24 | 48.42628 | 4.24983 | 38890 ft | 428 kts | 120° |
| 2026-05-06 15:25 | 48.39868 | 4.32934 | 38885 ft | 429 kts | 120° |
| 2026-05-06 15:25 | 48.37098 | 4.40881 | 38894 ft | 429 kts | 120° |
| 2026-05-06 15:26 | 48.34322 | 4.48826 | 38883 ft | 429 kts | 120° |
| 2026-05-06 15:26 | 48.31545 | 4.56748 | 38900 ft | 429 kts | 120° |
| 2026-05-06 15:27 | 48.28758 | 4.64679 | 38905 ft | 429 kts | 120° |
| 2026-05-06 15:27 | 48.25971 | 4.72589 | 38877 ft | 428 kts | 121° |
| 2026-05-06 15:28 | 48.23183 | 4.80445 | 38900 ft | 427 kts | 120° |
| 2026-05-06 15:28 | 48.20402 | 4.88321 | 38881 ft | 427 kts | 121° |
| 2026-05-06 15:29 | 48.17626 | 4.96119 | 38893 ft | 427 kts | 121° |
| 2026-05-06 15:29 | 48.14825 | 5.03967 | 38884 ft | 427 kts | 121° |
| 2026-05-06 15:30 | 48.12010 | 5.11874 | 38893 ft | 435 kts | 118° |
| 2026-05-06 15:30 | 48.09650 | 5.20342 | 38890 ft | 447 kts | 110° |
| 2026-05-06 15:31 | 48.07872 | 5.29359 | 38887 ft | 456 kts | 109° |
| 2026-05-06 15:31 | 48.06113 | 5.38552 | 38874 ft | 462 kts | 109° |
| 2026-05-06 15:32 | 48.03466 | 5.52304 | 38875 ft | 460 kts | 109° |
| 2026-05-06 15:32 | 48.01688 | 5.61485 | 38868 ft | 460 kts | 109° |
| 2026-05-06 15:33 | 47.99904 | 5.70655 | 38872 ft | 460 kts | 109° |
| 2026-05-06 15:33 | 47.98121 | 5.79769 | 38865 ft | 460 kts | 109° |
| 2026-05-06 15:34 | 47.96352 | 5.88775 | 38865 ft | 460 kts | 109° |
| 2026-05-06 15:34 | 47.94551 | 5.97903 | 38857 ft | 460 kts | 109° |
| 2026-05-06 15:35 | 47.92728 | 6.07086 | 38874 ft | 460 kts | 109° |
| 2026-05-06 15:35 | 47.90907 | 6.16224 | 38872 ft | 460 kts | 109° |
| 2026-05-06 15:36 | 47.89081 | 6.25349 | 38858 ft | 459 kts | 110° |
| 2026-05-06 15:36 | 47.87247 | 6.34470 | 38872 ft | 460 kts | 110° |
| 2026-05-06 15:37 | 47.85408 | 6.43565 | 38882 ft | 462 kts | 110° |
| 2026-05-06 15:37 | 47.83554 | 6.52701 | 38862 ft | 461 kts | 110° |
| 2026-05-06 15:38 | 47.81686 | 6.61856 | 38903 ft | 464 kts | 110° |
| 2026-05-06 15:38 | 47.79806 | 6.71028 | 38704 ft | 466 kts | 110° |
| 2026-05-06 15:39 | 47.78863 | 6.75627 | 38182 ft | 462 kts | 110° |
| 2026-05-06 15:39 | 47.77926 | 6.80170 | 37640 ft | 458 kts | 111° |
| 2026-05-06 15:39 | 47.76992 | 6.84687 | 37116 ft | 457 kts | 111° |
| 2026-05-06 15:39 | 47.76058 | 6.89196 | 36612 ft | 457 kts | 111° |
| 2026-05-06 15:40 | 47.75124 | 6.93705 | 36124 ft | 456 kts | 111° |
| 2026-05-06 15:40 | 47.74492 | 6.96739 | 35804 ft | 456 kts | 111° |
| 2026-05-06 15:40 | 47.73281 | 7.02554 | 35192 ft | 454 kts | 111° |
| 2026-05-06 15:40 | 47.72348 | 7.07023 | 34728 ft | 453 kts | 111° |
| 2026-05-06 15:41 | 47.71412 | 7.11492 | 34270 ft | 452 kts | 111° |
| 2026-05-06 15:41 | 47.70477 | 7.15945 | 33797 ft | 451 kts | 112° |
| 2026-05-06 15:41 | 47.69550 | 7.20343 | 33281 ft | 452 kts | 112° |
| 2026-05-06 15:41 | 47.68630 | 7.24721 | 32771 ft | 452 kts | 111° |
| 2026-05-06 15:42 | 47.67691 | 7.29173 | 32257 ft | 452 kts | 111° |
| 2026-05-06 15:42 | 47.66752 | 7.33616 | 31759 ft | 452 kts | 111° |
| 2026-05-06 15:42 | 47.65808 | 7.38072 | 31251 ft | 452 kts | 111° |
| 2026-05-06 15:42 | 47.64863 | 7.42520 | 30778 ft | 452 kts | 111° |
| 2026-05-06 15:43 | 47.63948 | 7.46985 | 30291 ft | 452 kts | 110° |
| 2026-05-06 15:43 | 47.62933 | 7.51391 | 29786 ft | 451 kts | 112° |
| 2026-05-06 15:43 | 47.61923 | 7.55797 | 29184 ft | 452 kts | 112° |
| 2026-05-06 15:43 | 47.60883 | 7.60239 | 28630 ft | 457 kts | 113° |
| 2026-05-06 15:44 | 47.59843 | 7.64676 | 28080 ft | 454 kts | 113° |
| 2026-05-06 15:44 | 47.58827 | 7.69011 | 27544 ft | 448 kts | 113° |
| 2026-05-06 15:44 | 47.57808 | 7.73352 | 27020 ft | 444 kts | 113° |
| 2026-05-06 15:44 | 47.56797 | 7.77649 | 26496 ft | 439 kts | 112° |
| 2026-05-06 15:45 | 47.55791 | 7.81908 | 25928 ft | 436 kts | 112° |
| 2026-05-06 15:45 | 47.55035 | 7.86246 | 25206 ft | 434 kts | 102° |
| 2026-05-06 15:45 | 47.54809 | 7.90672 | 24478 ft | 431 kts | 90° |
| 2026-05-06 15:45 | 47.55434 | 7.94988 | 23764 ft | 430 kts | 70° |
| 2026-05-06 15:46 | 47.56977 | 7.98756 | 23032 ft | 429 kts | 54° |
| 2026-05-06 15:46 | 47.58599 | 8.02404 | 22239 ft | 422 kts | 67° |
| 2026-05-06 15:46 | 47.59218 | 8.05110 | 21733 ft | 416 kts | 81° |
| 2026-05-06 15:46 | 47.59345 | 8.09324 | 20976 ft | 406 kts | 100° |
| 2026-05-06 15:47 | 47.58043 | 8.14380 | 20006 ft | 393 kts | 127° |
| 2026-05-06 15:47 | 47.56834 | 8.16403 | 19524 ft | 387 kts | 141° |
| 2026-05-06 15:47 | 47.53739 | 8.18736 | 18603 ft | 371 kts | 169° |
| 2026-05-06 15:47 | 47.52016 | 8.18936 | 18147 ft | 363 kts | 185° |
| 2026-05-06 15:48 | 47.49101 | 8.17482 | 17094 ft | 320 kts | 216° |
| 2026-05-06 15:48 | 47.48048 | 8.15954 | 16570 ft | 309 kts | 233° |
| 2026-05-06 15:48 | 47.47242 | 8.13064 | 15819 ft | 309 kts | 260° |
| 2026-05-06 15:48 | 47.47327 | 8.09877 | 15101 ft | 312 kts | 275° |
| 2026-05-06 15:49 | 47.47705 | 8.06756 | 14334 ft | 310 kts | 278° |
| 2026-05-06 15:49 | 47.48147 | 8.03678 | 13509 ft | 305 kts | 279° |
| 2026-05-06 15:49 | 47.48611 | 8.00651 | 12615 ft | 299 kts | 279° |
| 2026-05-06 15:49 | 47.49069 | 7.97729 | 11729 ft | 294 kts | 280° |
| 2026-05-06 15:50 | 47.49540 | 7.94803 | 10844 ft | 289 kts | 280° |
| 2026-05-06 15:50 | 47.50127 | 7.91989 | 10021 ft | 287 kts | 294° |
| 2026-05-06 15:50 | 47.51390 | 7.89741 | 9119 ft | 283 kts | 318° |
| 2026-05-06 15:50 | 47.53172 | 7.88577 | 8223 ft | 284 kts | 347° |
| 2026-05-06 15:51 | 47.55135 | 7.88828 | 7371 ft | 288 kts | 18° |
| 2026-05-06 15:51 | 47.56772 | 7.90509 | 7078 ft | 293 kts | 49° |
| 2026-05-06 15:51 | 47.57694 | 7.93178 | 7010 ft | 293 kts | 76° |
| 2026-05-06 15:51 | 47.58089 | 7.96128 | 6969 ft | 292 kts | 85° |
| 2026-05-06 15:52 | 47.58273 | 7.99117 | 6936 ft | 291 kts | 88° |
| 2026-05-06 15:52 | 47.58384 | 8.02149 | 6249 ft | 297 kts | 89° |
| 2026-05-06 15:52 | 47.58463 | 8.05114 | 6057 ft | 286 kts | 90° |
| 2026-05-06 15:52 | 47.58535 | 8.08064 | 5887 ft | 285 kts | 90° |
| 2026-05-06 15:53 | 47.58571 | 8.11033 | 5755 ft | 283 kts | 91° |
| 2026-05-06 15:53 | 47.58591 | 8.13814 | 5856 ft | 261 kts | 90° |
| 2026-05-06 15:53 | 47.58740 | 8.16479 | 5974 ft | 258 kts | 85° |
| 2026-05-06 15:53 | 47.58960 | 8.19101 | 5969 ft | 259 kts | 84° |
| 2026-05-06 15:54 | 47.59193 | 8.21751 | 5608 ft | 256 kts | 84° |
| 2026-05-06 15:54 | 47.59426 | 8.24320 | 5149 ft | 244 kts | 83° |
| 2026-05-06 15:54 | 47.59634 | 8.26741 | 4707 ft | 231 kts | 84° |
| 2026-05-06 15:54 | 47.59837 | 8.29072 | 4206 ft | 228 kts | 83° |
| 2026-05-06 15:55 | 47.60026 | 8.31351 | 4059 ft | 224 kts | 83° |
| 2026-05-06 15:55 | 47.60209 | 8.33660 | 4008 ft | 228 kts | 83° |
| 2026-05-06 15:55 | 47.60394 | 8.36027 | 4009 ft | 232 kts | 83° |
| 2026-05-06 15:55 | 47.60576 | 8.38298 | 3994 ft | 215 kts | 83° |
| 2026-05-06 15:56 | 47.60738 | 8.40455 | 3984 ft | 208 kts | 85° |
| 2026-05-06 15:56 | 47.60425 | 8.42470 | 3974 ft | 202 kts | 131° |
| 2026-05-06 15:56 | 47.59372 | 8.43756 | 3840 ft | 193 kts | 156° |
| 2026-05-06 15:56 | 47.58138 | 8.44486 | 3734 ft | 189 kts | 167° |
| 2026-05-06 15:57 | 47.56877 | 8.45061 | 3549 ft | 191 kts | 169° |
| 2026-05-06 15:57 | 47.55613 | 8.45719 | 3225 ft | 193 kts | 162° |
| 2026-05-06 15:57 | 47.54413 | 8.46584 | 2816 ft | 190 kts | 156° |
| 2026-05-06 15:57 | 47.53298 | 8.47549 | 2535 ft | 178 kts | 152° |
| 2026-05-06 15:58 | 47.52296 | 8.48481 | 2470 ft | 170 kts | 149° |
| 2026-05-06 15:58 | 47.51335 | 8.49467 | 2252 ft | 167 kts | 146° |
| 2026-05-06 15:58 | 47.50479 | 8.50522 | 1987 ft | 153 kts | 141° |
| 2026-05-06 15:58 | 47.49737 | 8.51566 | 1785 ft | 146 kts | 137° |
| 2026-05-06 15:59 | 47.49009 | 8.52544 | 1644 ft | 138 kts | 140° |
| 2026-05-06 15:59 | 47.48311 | 8.53476 | 1474 ft | 134 kts | 139° |
| 2026-05-06 15:59 | 47.47620 | 8.54418 | 1407 ft | 130 kts | 140° |
| 2026-05-06 15:59 | 47.47014 | 8.55238 | 1406 ft | 108 kts | 137° |
| 2026-05-06 16:00 | 47.46555 | 8.55850 | 1402 ft | 60 kts | 147° |
| 2026-05-06 16:00 | 47.46310 | 8.55976 | 1407 ft | 17 kts | 170° |
| 2026-05-06 16:00 | 47.46253 | 8.55988 | 1405 ft | 1 kts | 182° |
| 2026-05-06 16:00 | 47.46243 | 8.55981 | 1397 ft | 1 kts | 218° |
| 2026-05-06 16:01 | 47.46233 | 8.55958 | 1400 ft | 5 kts | 244° |
| 2026-05-06 16:01 | 47.46229 | 8.55874 | 1396 ft | 10 kts | 276° |
| 2026-05-06 16:01 | 47.46239 | 8.55744 | 1402 ft | 15 kts | 277° |
| 2026-05-06 16:01 | 47.46250 | 8.55591 | 1396 ft | 9 kts | 273° |
| 2026-05-06 16:02 | 47.46232 | 8.55559 | 1402 ft | 4 kts | 206° |
| 2026-05-06 16:02 | 47.46200 | 8.55555 | 1396 ft | 7 kts | 185° |
| 2026-05-06 16:02 | 47.46171 | 8.55550 | 1400 ft | 0 kts | 186° |
| 2026-05-06 16:02 | 47.46168 | 8.55550 | 1401 ft | 2 kts | 184° |